Time;durP1;ratioP1;P1;durP2;ratioP2;P2;SDS_P1;SDS_P2;PMS_P1;PMS_P2;Temp;Humidity;BMP_temperature;BMP_pressure;BME280_temperature;BME280_humidity;BME280_pressure;Samples;Min_cycle;Max_cycle;Signal;HPM_P1;HPM_P2
2023/04/16 00:00:36;;;;;;;;;4.50;1.75;;;;;22.47;38.81;101721.69;5077099;27;45441;-68
2023/04/16 00:03:01;;;;;;;;;3.50;1.75;;;;;22.50;38.83;101727.69;5061026;28;45387;-68
2023/04/16 00:05:26;;;;;;;;;2.00;2.00;;;;;22.48;38.82;101721.59;5077054;27;68497;-67
2023/04/16 00:07:52;;;;;;;;;2.25;2.25;;;;;22.49;39.08;101722.47;5078675;27;67702;-68
2023/04/16 00:10:17;;;;;;;;;3.50;2.75;;;;;22.49;38.82;101736.66;5083277;27;45384;-68
2023/04/16 00:12:43;;;;;;;;;2.50;2.50;;;;;22.47;38.74;101727.00;5079495;27;45314;-68
2023/04/16 00:15:08;;;;;;;;;2.50;2.50;;;;;22.47;38.34;101725.22;5072827;27;63390;-68
2023/04/16 00:17:34;;;;;;;;;2.00;2.00;;;;;22.45;38.42;101726.25;5061460;28;47495;-67
2023/04/16 00:19:59;;;;;;;;;4.25;1.50;;;;;22.48;38.52;101734.06;5079643;27;46961;-67
2023/04/16 00:22:24;;;;;;;;;4.50;3.00;;;;;22.46;38.50;101731.50;5076863;27;45347;-68
2023/04/16 00:24:50;;;;;;;;;1.25;1.25;;;;;22.45;38.83;101732.47;5072732;28;54926;-68
2023/04/16 00:27:15;;;;;;;;;2.25;2.25;;;;;22.47;38.28;101737.69;5077245;28;46292;-67
2023/04/16 00:29:40;;;;;;;;;0.50;0.50;;;;;22.44;38.25;101728.06;5072400;27;45306;-67
2023/04/16 00:32:06;;;;;;;;;3.25;0.75;;;;;22.46;38.74;101731.50;5075765;27;58301;-67
2023/04/16 00:34:31;;;;;;;;;1.50;1.50;;;;;22.46;38.37;101730.66;5079488;27;45436;-67
2023/04/16 00:36:57;;;;;;;;;2.75;2.25;;;;;22.45;38.58;101735.13;5053824;28;53797;-68
2023/04/16 00:39:22;;;;;;;;;1.00;1.00;;;;;22.47;38.45;101738.56;5056832;27;45979;-67
2023/04/16 00:41:48;;;;;;;;;1.25;1.25;;;;;22.46;38.61;101742.16;5080064;27;45721;-68
2023/04/16 00:44:13;;;;;;;;;4.00;2.00;;;;;22.46;38.10;101744.84;5058393;27;45627;-68
2023/04/16 00:46:40;;;;;;;;;2.25;2.00;;;;;22.44;38.67;101736.06;5068830;27;46198;-68
2023/04/16 00:49:06;;;;;;;;;4.00;2.00;;;;;22.46;38.39;101736.84;5060411;27;45474;-68
2023/04/16 00:51:31;;;;;;;;;2.50;2.50;;;;;22.44;38.22;101733.41;5079841;27;45508;-68
2023/04/16 00:53:57;;;;;;;;;2.00;0.75;;;;;22.43;38.46;101726.34;5079247;27;45307;-68
2023/04/16 00:56:23;;;;;;;;;1.25;1.25;;;;;22.45;38.37;101735.13;5061262;28;48305;-68
2023/04/16 00:58:49;;;;;;;;;2.50;1.25;;;;;22.43;38.63;101729.00;5078239;27;45244;-68
2023/04/16 01:01:15;;;;;;;;;1.75;1.75;;;;;22.44;38.22;101735.22;5077167;28;45475;-67
2023/04/16 01:03:45;;;;;;;;;2.00;1.50;;;;;22.43;38.38;101731.69;5076637;27;45656;-67
2023/04/16 01:06:11;;;;;;;;;1.75;1.25;;;;;22.44;38.05;101732.56;5070694;27;46976;-68
2023/04/16 01:08:36;;;;;;;;;1.00;1.00;;;;;22.42;38.28;101726.47;5073866;27;65265;-67
2023/04/16 01:11:02;;;;;;;;;2.25;2.25;;;;;22.42;37.98;101726.47;5080013;27;45445;-67
2023/04/16 01:13:28;;;;;;;;;2.25;1.00;;;;;22.41;38.42;101716.72;5072705;27;55623;-67
2023/04/16 01:15:53;;;;;;;;;3.00;1.00;;;;;22.42;38.13;101721.97;5066330;27;45492;-67
2023/04/16 01:18:20;;;;;;;;;2.00;0.25;;;;;22.43;37.97;101731.69;5079087;27;45229;-67
2023/04/16 01:20:46;;;;;;;;;2.00;2.00;;;;;22.44;38.37;101727.22;5078152;28;45313;-67
2023/04/16 01:23:12;;;;;;;;;4.25;1.25;;;;;22.42;38.52;101729.13;5074253;27;45659;-67
2023/04/16 01:25:38;;;;;;;;;2.00;2.00;;;;;22.43;38.38;101737.00;5076762;27;45876;-67
2023/04/16 01:28:04;;;;;;;;;1.25;1.25;;;;;22.43;38.45;101738.84;5059105;27;45509;-67
2023/04/16 01:30:29;;;;;;;;;1.00;1.00;;;;;22.41;38.01;101722.06;5057008;28;45469;-67
2023/04/16 01:32:55;;;;;;;;;1.25;1.25;;;;;22.42;37.80;101726.47;5075556;27;45413;-67
2023/04/16 01:35:20;;;;;;;;;1.25;1.00;;;;;22.41;38.17;101733.59;5077767;27;45420;-67
2023/04/16 01:37:46;;;;;;;;;2.50;2.25;;;;;22.41;38.24;101727.41;5058804;28;46212;-67
2023/04/16 01:40:11;;;;;;;;;1.25;1.25;;;;;22.39;37.73;101727.50;5073537;27;45486;-68
2023/04/16 01:42:37;;;;;;;;;1.75;1.00;;;;;22.39;38.25;101723.97;5078648;27;45302;-68
2023/04/16 01:45:04;;;;;;;;;5.00;0.75;;;;;22.36;37.78;101717.88;5074659;27;46901;-67
2023/04/16 01:47:29;;;;;;;;;1.75;1.75;;;;;22.39;38.38;101724.81;5078036;27;46009;-67
2023/04/16 01:49:55;;;;;;;;;0.75;0.75;;;;;22.41;37.84;101738.06;5059752;28;46977;-67
2023/04/16 01:52:20;;;;;;;;;3.00;1.00;;;;;22.41;38.08;101743.41;5076917;27;45496;-68
2023/04/16 01:54:45;;;;;;;;;0.25;0.25;;;;;22.39;37.74;101738.16;5053454;28;47298;-67
2023/04/16 01:57:11;;;;;;;;;5.00;2.00;;;;;22.39;37.96;101743.50;5077742;28;45362;-67
2023/04/16 01:59:36;;;;;;;;;2.00;1.25;;;;;22.40;37.70;101747.91;5073996;27;67478;-68
2023/04/16 02:02:12;;;;;;;;;3.75;1.50;;;;;22.40;38.01;101741.69;5086218;27;61736;-67
2023/04/16 02:04:39;;;;;;;;;1.00;1.00;;;;;22.37;37.79;101745.41;5077051;28;45487;-68
2023/04/16 02:07:05;;;;;;;;;1.00;1.00;;;;;22.37;38.08;101751.59;5078112;27;45441;-67
2023/04/16 02:09:30;;;;;;;;;1.00;1.00;;;;;22.40;38.07;101757.69;5074637;27;45448;-67
2023/04/16 02:11:56;;;;;;;;;1.50;1.00;;;;;22.37;37.83;101748.91;5076605;27;62389;-67
2023/04/16 02:14:24;;;;;;;;;0.25;0.25;;;;;22.37;37.62;101750.75;5073635;28;62123;-67
2023/04/16 02:16:50;;;;;;;;;1.75;1.00;;;;;22.37;37.57;101758.75;5059098;27;45411;-68
2023/04/16 02:19:15;;;;;;;;;2.75;1.00;;;;;22.37;37.75;101756.91;5076578;27;45525;-67
2023/04/16 02:21:40;;;;;;;;;0.50;0.50;;;;;22.36;37.52;101749.88;5077088;27;69527;-68
2023/04/16 02:24:06;;;;;;;;;0.25;0.25;;;;;22.35;37.92;101748.16;5075771;27;46545;-68
2023/04/16 02:26:31;;;;;;;;;1.50;1.25;;;;;22.36;37.94;101751.69;5076145;27;45374;-67
2023/04/16 02:28:56;;;;;;;;;2.00;1.75;;;;;22.36;37.65;101751.69;5075345;27;45453;-67
2023/04/16 02:31:22;;;;;;;;;1.00;1.00;;;;;22.35;37.57;101750.84;5076567;27;45542;-68
2023/04/16 02:33:47;;;;;;;;;2.00;1.50;;;;;22.35;38.12;101749.97;5075842;27;46264;-67
2023/04/16 02:36:13;;;;;;;;;0.75;0.75;;;;;22.35;37.57;101758.81;5075968;27;55663;-68
2023/04/16 02:38:38;;;;;;;;;1.00;1.00;;;;;22.34;37.51;101751.75;5076587;27;46320;-68
2023/04/16 02:41:03;;;;;;;;;3.00;1.75;;;;;22.36;37.96;101749.00;5078091;27;69661;-68
2023/04/16 02:43:29;;;;;;;;;0.25;0.25;;;;;22.34;37.99;101751.75;5078139;27;46798;-68
2023/04/16 02:45:54;;;;;;;;;1.00;1.00;;;;;22.35;37.63;101755.31;5072071;28;65050;-68
2023/04/16 02:48:19;;;;;;;;;1.00;1.00;;;;;22.33;38.11;101750.06;5077340;27;45457;-68
2023/04/16 02:50:45;;;;;;;;;1.25;1.00;;;;;22.32;37.90;101744.81;5071995;27;66706;-68
2023/04/16 02:53:10;;;;;;;;;1.00;1.00;;;;;22.33;37.90;101757.22;5078578;27;47069;-68
2023/04/16 02:55:35;;;;;;;;;1.00;0.50;;;;;22.31;37.73;101749.31;5074018;27;45492;-68
2023/04/16 02:58:01;;;;;;;;;1.00;1.00;;;;;22.32;38.02;101760.81;5074566;27;62641;-68
2023/04/16 03:00:26;;;;;;;;;3.50;1.25;;;;;22.34;37.57;101758.91;5075552;27;70636;-68
2023/04/16 03:02:52;;;;;;;;;1.50;1.50;;;;;22.32;37.28;101751.00;5069893;27;47327;-69
2023/04/16 03:05:17;;;;;;;;;1.50;1.50;;;;;22.32;37.86;101744.81;5074771;27;51653;-69
2023/04/16 03:07:42;;;;;;;;;1.25;1.25;;;;;22.31;37.51;101748.44;5076664;27;56085;-69
2023/04/16 03:10:08;;;;;;;;;3.50;1.75;;;;;22.33;37.73;101747.41;5071150;27;70477;-69
2023/04/16 03:12:34;;;;;;;;;2.50;1.75;;;;;22.32;37.35;101753.66;5076489;27;45522;-69
2023/04/16 03:14:59;;;;;;;;;2.00;2.00;;;;;22.32;37.40;101756.34;5073847;27;45803;-69
2023/04/16 03:17:25;;;;;;;;;1.25;1.25;;;;;22.32;37.61;101755.50;5076506;27;45395;-68
2023/04/16 03:19:50;;;;;;;;;1.50;1.00;;;;;22.32;37.95;101764.34;5052428;28;74827;-68
2023/04/16 03:22:16;;;;;;;;;2.50;2.25;;;;;22.30;37.91;101757.41;5079233;27;45480;-68
2023/04/16 03:24:41;;;;;;;;;1.00;1.00;;;;;22.32;37.48;101763.50;5072724;27;45568;-68
2023/04/16 03:27:07;;;;;;;;;1.50;1.50;;;;;22.31;37.43;101761.75;5056291;28;45310;-69
2023/04/16 03:29:32;;;;;;;;;2.00;2.00;;;;;22.31;37.74;101761.75;5068026;27;73286;-68
2023/04/16 03:31:57;;;;;;;;;2.00;2.00;;;;;22.31;37.25;101773.31;5077078;28;55881;-68
2023/04/16 03:34:23;;;;;;;;;2.50;2.00;;;;;22.29;37.28;101769.88;5070566;27;45335;-68
2023/04/16 03:36:48;;;;;;;;;2.75;2.00;;;;;22.29;37.56;101764.56;5075196;27;45669;-68
2023/04/16 03:39:13;;;;;;;;;1.25;1.25;;;;;22.30;37.47;101771.59;5073432;27;68780;-68
2023/04/16 03:41:39;;;;;;;;;2.00;1.00;;;;;22.29;37.47;101764.56;5060387;28;48148;-68
2023/04/16 03:44:04;;;;;;;;;1.25;1.25;;;;;22.30;37.71;101765.41;5075344;27;59044;-68
2023/04/16 03:46:29;;;;;;;;;2.75;1.00;;;;;22.30;37.34;101760.06;5057289;28;45492;-69
2023/04/16 03:48:55;;;;;;;;;1.00;1.00;;;;;22.29;37.64;101764.56;5074288;27;69730;-68
2023/04/16 03:51:20;;;;;;;;;4.00;1.75;;;;;22.29;37.34;101761.88;5072461;28;74422;-68
2023/04/16 03:53:45;;;;;;;;;1.00;1.00;;;;;22.30;37.53;101774.25;5073398;27;50559;-68
2023/04/16 03:56:11;;;;;;;;;3.00;1.25;;;;;22.29;37.62;101763.66;5056691;28;66093;-68
2023/04/16 03:58:36;;;;;;;;;1.00;1.00;;;;;22.28;37.30;101767.31;5075600;27;63426;-68
2023/04/16 04:01:01;;;;;;;;;0.25;0.25;;;;;22.29;37.16;101771.66;5078781;27;62314;-68
2023/04/16 04:03:27;;;;;;;;;1.00;1.00;;;;;22.27;37.28;101769.09;5081206;27;45433;-68
2023/04/16 04:05:52;;;;;;;;;1.25;1.25;;;;;22.25;37.48;101770.97;5077339;27;50846;-68
2023/04/16 04:08:17;;;;;;;;;0.75;0.75;;;;;22.28;37.46;101772.63;5079231;27;65888;-68
2023/04/16 04:10:44;;;;;;;;;2.00;1.00;;;;;22.27;37.18;101778.91;5075261;27;63895;-68
2023/04/16 04:13:10;;;;;;;;;2.00;1.50;;;;;22.27;37.38;101777.09;5076637;27;46095;-68
2023/04/16 04:15:35;;;;;;;;;0.25;0.25;;;;;22.27;37.64;101778.91;5074458;27;47863;-68
2023/04/16 04:18:01;;;;;;;;;1.00;1.00;;;;;22.26;37.32;101787.84;5079661;27;45486;-68
2023/04/16 04:20:26;;;;;;;;;1.75;1.75;;;;;22.25;37.62;101781.63;5077258;27;47428;-68
2023/04/16 04:22:51;;;;;;;;;3.50;2.25;;;;;22.23;37.63;101783.53;5079098;27;66298;-68
2023/04/16 04:25:17;;;;;;;;;1.00;1.00;;;;;22.26;37.09;101788.69;5072511;27;45549;-68
2023/04/16 04:27:42;;;;;;;;;0.25;0.25;;;;;22.27;37.09;101789.56;5078011;28;63469;-68
2023/04/16 04:30:08;;;;;;;;;1.25;1.25;;;;;22.28;37.62;101785.97;5076164;27;52707;-68
2023/04/16 04:32:34;;;;;;;;;0.50;0.50;;;;;22.24;37.41;101785.25;5080079;28;45471;-68
2023/04/16 04:35:01;;;;;;;;;2.00;1.50;;;;;22.25;37.58;101791.44;5075015;27;45243;-68
2023/04/16 04:37:26;;;;;;;;;0.50;0.50;;;;;22.26;37.17;101798.50;5058310;28;45532;-68
2023/04/16 04:39:51;;;;;;;;;2.00;2.00;;;;;22.26;37.35;101798.50;5073022;27;46170;-68
2023/04/16 04:42:17;;;;;;;;;3.75;1.50;;;;;22.26;37.26;101801.19;5079348;27;50745;-68
2023/04/16 04:44:43;;;;;;;;;1.00;1.00;;;;;22.24;37.51;101789.72;5073482;28;45428;-68
2023/04/16 04:47:09;;;;;;;;;2.25;2.00;;;;;22.23;37.20;101798.69;5079334;27;45443;-68
2023/04/16 04:49:34;;;;;;;;;1.25;0.50;;;;;22.26;37.46;101803.84;5078473;27;45512;-68
2023/04/16 04:52:00;;;;;;;;;1.50;1.50;;;;;22.24;37.32;101800.38;5078387;27;45405;-69
2023/04/16 04:54:26;;;;;;;;;1.75;1.75;;;;;22.24;37.31;101803.94;5074420;27;45405;-69
2023/04/16 04:56:52;;;;;;;;;3.25;2.00;;;;;22.23;37.37;101809.34;5075175;27;45472;-69
2023/04/16 04:59:18;;;;;;;;;4.00;2.25;;;;;22.23;37.21;101804.88;5079590;27;47934;-69
2023/04/16 05:01:44;;;;;;;;;3.00;3.00;;;;;22.23;37.15;101812.00;5061870;28;45919;-69
2023/04/16 05:04:09;;;;;;;;;3.25;1.50;;;;;22.24;37.54;101813.72;5075208;27;64496;-69
2023/04/16 05:06:35;;;;;;;;;1.50;1.50;;;;;22.24;37.40;101811.94;5078444;28;45514;-69
2023/04/16 05:09:00;;;;;;;;;1.25;1.25;;;;;22.21;37.38;101800.59;5056785;27;47418;-69
2023/04/16 05:11:26;;;;;;;;;4.50;2.25;;;;;22.23;37.41;101804.00;5078711;27;51384;-69
2023/04/16 05:13:52;;;;;;;;;4.00;2.25;;;;;22.21;37.19;101803.25;5075220;27;66769;-69
2023/04/16 05:16:17;;;;;;;;;3.75;1.25;;;;;22.22;36.91;101813.78;5072293;27;45520;-69
2023/04/16 05:18:43;;;;;;;;;4.00;2.25;;;;;22.22;37.06;101815.63;5079160;27;74675;-69
2023/04/16 05:21:08;;;;;;;;;1.50;1.50;;;;;22.19;37.38;101814.00;5076634;27;46105;-69
2023/04/16 05:23:33;;;;;;;;;3.00;3.00;;;;;22.20;37.56;101818.38;5079014;27;45254;-69
2023/04/16 05:25:59;;;;;;;;;3.00;3.00;;;;;22.20;37.41;101823.69;5077081;27;46456;-69
2023/04/16 05:28:24;;;;;;;;;2.75;2.75;;;;;22.21;37.26;101822.78;5076678;27;46130;-69
2023/04/16 05:30:49;;;;;;;;;2.50;2.50;;;;;22.18;36.94;101823.78;5073427;27;45188;-69
2023/04/16 05:33:15;;;;;;;;;2.50;2.00;;;;;22.18;37.11;101826.44;5079781;27;45408;-69
2023/04/16 05:35:40;;;;;;;;;3.75;1.00;;;;;22.20;37.54;101829.03;5074936;27;45343;-69
2023/04/16 05:38:05;;;;;;;;;2.00;2.00;;;;;22.19;37.16;101832.66;5076451;27;51834;-68
2023/04/16 05:40:31;;;;;;;;;2.00;2.00;;;;;22.19;37.43;101840.66;5074099;27;45245;-69
2023/04/16 05:42:56;;;;;;;;;4.25;2.50;;;;;22.18;37.42;101836.28;5072655;27;45235;-69
2023/04/16 05:45:22;;;;;;;;;4.75;3.50;;;;;22.16;37.14;101831.03;5076061;28;45403;-69
2023/04/16 05:47:47;;;;;;;;;5.75;3.25;;;;;22.18;36.82;101841.59;5068741;28;74355;-68
2023/04/16 05:50:12;;;;;;;;;3.50;3.00;;;;;22.18;37.29;101845.13;5075099;27;72500;-68
2023/04/16 05:52:38;;;;;;;;;2.50;1.50;;;;;22.20;37.31;101850.38;5074837;27;56482;-69
2023/04/16 05:55:04;;;;;;;;;4.25;3.00;;;;;22.17;36.98;101840.75;5075350;27;45473;-69
2023/04/16 05:57:29;;;;;;;;;2.25;2.25;;;;;22.20;36.95;101845.03;5070517;27;48061;-69
2023/04/16 05:59:55;;;;;;;;;2.25;2.25;;;;;22.18;36.78;101844.28;5055959;28;45438;-69
2023/04/16 06:02:20;;;;;;;;;3.00;3.00;;;;;22.17;37.00;101845.22;5075700;28;54188;-69
2023/04/16 06:04:45;;;;;;;;;2.00;2.00;;;;;22.17;36.95;101845.22;5076317;27;45970;-69
2023/04/16 06:07:11;;;;;;;;;3.50;3.00;;;;;22.17;36.91;101848.75;5078045;27;45248;-69
2023/04/16 06:09:36;;;;;;;;;2.25;2.25;;;;;22.17;36.75;101851.41;5056534;27;45271;-69
2023/04/16 06:12:02;;;;;;;;;4.00;4.00;;;;;22.18;36.91;101852.25;5077593;27;62509;-69
2023/04/16 06:14:27;;;;;;;;;1.75;1.25;;;;;22.17;37.17;101853.22;5072740;27;45560;-68
2023/04/16 06:16:52;;;;;;;;;2.75;2.75;;;;;22.15;37.36;101849.78;5071613;28;69314;-69
2023/04/16 06:19:17;;;;;;;;;4.00;3.25;;;;;22.15;37.27;101849.78;5058099;28;45272;-68
2023/04/16 06:21:43;;;;;;;;;3.00;3.00;;;;;22.18;36.86;101860.25;5075205;28;51365;-68
2023/04/16 06:24:08;;;;;;;;;2.25;2.25;;;;;22.15;36.78;101848.00;5074886;27;68911;-68
2023/04/16 06:26:34;;;;;;;;;3.00;3.00;;;;;22.16;36.86;101857.69;5076137;28;47402;-68
2023/04/16 06:28:59;;;;;;;;;2.25;2.25;;;;;22.15;36.71;101849.78;5077879;27;45466;-68
2023/04/16 06:31:25;;;;;;;;;3.50;3.00;;;;;22.16;37.09;101857.69;5072179;28;45947;-68
2023/04/16 06:33:50;;;;;;;;;3.75;2.00;;;;;22.13;37.19;101847.22;5057950;28;45264;-69
2023/04/16 06:36:15;;;;;;;;;9.25;7.25;;;;;22.17;36.79;101863.91;5069842;28;72253;-73
2023/04/16 06:38:41;;;;;;;;;12.50;12.50;;;;;22.16;37.08;101859.50;5056744;28;45513;-70
2023/04/16 06:41:08;;;;;;;;;12.00;12.00;;;;;22.07;36.77;101855.56;5074023;27;45453;-72
2023/04/16 06:43:33;;;;;;;;;16.50;11.50;;;;;22.06;36.83;101859.19;5074315;28;66301;-73
2023/04/16 06:45:59;;;;;;;;;19.00;16.50;;;;;22.03;36.45;101861.16;5072236;28;46561;-73
2023/04/16 06:48:24;;;;;;;;;22.25;17.75;;;;;22.00;36.77;101865.72;5075862;27;45449;-78
2023/04/16 06:50:49;;;;;;;;;18.75;17.75;;;;;21.95;36.64;101858.94;5064438;27;52173;-70
2023/04/16 06:53:15;;;;;;;;;21.25;17.75;;;;;21.93;36.63;101860.81;5071139;27;64407;-72
2023/04/16 06:55:40;;;;;;;;;16.50;13.75;;;;;21.89;36.80;101861.97;5073666;27;46243;-73
2023/04/16 06:58:05;;;;;;;;;19.50;16.75;;;;;21.84;36.18;101867.53;5071483;27;69425;-73
2023/04/16 07:00:31;;;;;;;;;19.00;16.50;;;;;21.83;36.35;101864.94;5071387;27;62124;-73
2023/04/16 07:02:56;;;;;;;;;18.50;16.50;;;;;21.75;36.42;101863.59;5077105;28;46778;-74
2023/04/16 07:05:22;;;;;;;;;19.75;16.00;;;;;21.74;35.93;101871.66;5074003;28;54955;-73
2023/04/16 07:07:47;;;;;;;;;18.75;14.75;;;;;21.71;35.71;101878.03;5080452;27;46489;-74
2023/04/16 07:10:12;;;;;;;;;21.75;19.25;;;;;21.66;35.66;101874.75;5053460;28;64937;-69
2023/04/16 07:12:38;;;;;;;;;20.25;17.50;;;;;21.64;36.14;101875.78;5076574;28;45919;-71
2023/04/16 07:15:05;;;;;;;;;19.75;17.50;;;;;21.60;35.99;101877.75;5072091;27;45667;-71
2023/04/16 07:17:30;;;;;;;;;20.25;15.50;;;;;21.57;35.85;101867.28;5073770;27;45343;-72
2023/04/16 07:19:55;;;;;;;;;15.75;12.50;;;;;21.52;35.93;101864.00;5074175;27;68489;-69
2023/04/16 07:22:20;;;;;;;;;16.00;12.75;;;;;21.51;35.53;101862.28;5075547;28;61021;-70
2023/04/16 07:24:46;;;;;;;;;14.00;12.00;;;;;21.56;36.26;101879.72;5083957;27;47117;-70
2023/04/16 07:27:11;;;;;;;;;10.25;10.00;;;;;21.56;35.96;101878.88;5077813;27;70300;-70
2023/04/16 07:29:37;;;;;;;;;10.75;9.25;;;;;21.57;36.29;101869.94;5070468;27;45324;-69
2023/04/16 07:32:02;;;;;;;;;10.25;9.25;;;;;21.54;36.37;101868.28;5076450;27;71449;-69
2023/04/16 07:34:28;;;;;;;;;9.50;9.00;;;;;21.56;36.32;101868.22;5075113;27;46513;-69
2023/04/16 07:36:53;;;;;;;;;13.50;8.50;;;;;21.60;35.73;101878.63;5075354;27;45394;-70
2023/04/16 07:39:18;;;;;;;;;13.00;11.00;;;;;21.59;36.08;101870.72;5079531;27;65233;-70
2023/04/16 07:41:44;;;;;;;;;11.50;10.00;;;;;21.62;36.33;101878.56;5073414;28;64747;-70
2023/04/16 07:44:09;;;;;;;;;9.00;8.75;;;;;21.61;36.16;101869.69;5061883;27;47222;-71
2023/04/16 07:46:34;;;;;;;;;11.00;9.00;;;;;21.66;35.99;101877.41;5081043;28;45334;-70
2023/04/16 07:49:00;;;;;;;;;9.00;8.00;;;;;21.68;36.18;101875.53;5061042;28;59709;-70
2023/04/16 07:51:26;;;;;;;;;8.50;7.75;;;;;21.69;36.27;101871.06;5059874;28;45330;-70
2023/04/16 07:53:51;;;;;;;;;12.25;7.75;;;;;21.69;36.65;101871.94;5079512;27;47892;-70
2023/04/16 07:56:16;;;;;;;;;9.00;8.00;;;;;21.73;36.34;101883.28;5073330;27;64340;-70
2023/04/16 07:58:42;;;;;;;;;10.00;7.50;;;;;21.76;36.54;101891.97;5058493;27;66460;-70
2023/04/16 08:01:07;;;;;;;;;9.00;6.75;;;;;21.77;36.30;101876.81;5071269;28;53711;-70
2023/04/16 08:03:32;;;;;;;;;9.25;8.25;;;;;21.78;36.62;101892.72;5055248;28;77137;-70
2023/04/16 08:05:58;;;;;;;;;10.25;6.50;;;;;21.82;36.70;101893.41;5059673;28;45268;-70
2023/04/16 08:08:23;;;;;;;;;7.00;7.00;;;;;21.84;36.39;101888.00;5057807;27;47497;-70
2023/04/16 08:10:48;;;;;;;;;6.75;6.75;;;;;21.85;36.41;101887.91;5076554;27;54816;-70
2023/04/16 08:13:14;;;;;;;;;7.00;6.00;;;;;21.85;36.51;101893.25;5075821;27;71788;-70
2023/04/16 08:15:39;;;;;;;;;6.00;6.00;;;;;21.89;36.76;101902.78;5079444;27;45334;-70
2023/04/16 08:18:06;;;;;;;;;7.00;7.00;;;;;21.90;36.33;101888.53;5079718;27;54421;-70
2023/04/16 08:20:31;;;;;;;;;9.75;6.50;;;;;21.95;36.67;101894.44;5059055;28;45652;-70
2023/04/16 08:22:57;;;;;;;;;7.00;6.00;;;;;21.94;36.74;101890.06;5080673;27;46810;-70
2023/04/16 08:25:23;;;;;;;;;6.75;6.75;;;;;21.97;36.25;101887.22;5073784;27;66101;-70
2023/04/16 08:27:49;;;;;;;;;6.50;5.50;;;;;21.97;36.73;101889.91;5080981;27;45418;-70
2023/04/16 08:30:15;;;;;;;;;8.00;6.00;;;;;22.01;36.25;101890.59;5061849;28;45437;-70
2023/04/16 08:32:41;;;;;;;;;6.50;6.50;;;;;22.05;36.70;101891.25;5072258;27;47631;-70
2023/04/16 08:35:07;;;;;;;;;7.00;5.25;;;;;22.06;36.82;101899.19;5078167;27;45625;-70
2023/04/16 08:37:32;;;;;;;;;8.00;7.00;;;;;22.07;36.70;101894.69;5052498;28;45463;-70
2023/04/16 08:39:58;;;;;;;;;4.25;4.25;;;;;22.10;36.45;101906.03;5076709;27;45745;-70
2023/04/16 08:42:30;;;;;;;;;7.50;7.25;;;;;22.10;36.59;101898.03;5063307;27;50773;-69
2023/04/16 08:45:16;;;;;;;;;6.50;6.50;;;;;22.12;36.74;101904.16;5069899;27;45453;-69
2023/04/16 08:47:45;;;;;;;;;6.00;6.00;;;;;22.16;36.73;101915.50;5062161;28;45424;-69
2023/04/16 08:50:13;;;;;;;;;6.00;6.00;;;;;22.17;36.55;101907.41;5070991;27;45305;-69
2023/04/16 08:52:44;;;;;;;;;5.25;4.00;;;;;22.18;36.55;101911.78;5059190;28;48648;-69
2023/04/16 08:55:13;;;;;;;;;6.25;6.00;;;;;22.21;36.58;101907.25;5067920;28;45752;-69
2023/04/16 08:57:53;;;;;;;;;6.25;6.25;;;;;22.22;36.36;101915.13;5079339;27;45394;-69
2023/04/16 09:00:19;;;;;;;;;5.00;5.00;;;;;22.24;36.63;101912.38;5056988;28;46017;-69
2023/04/16 09:02:45;;;;;;;;;6.50;6.00;;;;;22.24;36.80;101910.59;5077745;27;46631;-69
2023/04/16 09:05:15;;;;;;;;;7.00;5.25;;;;;22.28;36.34;101913.97;5056235;28;45479;-69
2023/04/16 09:07:45;;;;;;;;;6.75;6.75;;;;;22.31;36.37;101920.00;5072869;27;45376;-69
2023/04/16 09:10:12;;;;;;;;;5.50;5.50;;;;;22.30;36.57;101909.41;5073745;27;45427;-69
2023/04/16 09:12:39;;;;;;;;;6.25;5.50;;;;;22.31;36.87;101912.00;5069151;28;46981;-69
2023/04/16 09:15:05;;;;;;;;;8.00;6.00;;;;;22.33;36.60;101909.22;5075990;27;45384;-69
2023/04/16 09:17:31;;;;;;;;;7.00;6.50;;;;;22.35;36.73;101913.50;5064743;28;45482;-69
2023/04/16 09:19:56;;;;;;;;;9.75;5.50;;;;;22.39;36.46;101916.00;5079439;27;75256;-69
2023/04/16 09:22:21;;;;;;;;;7.50;5.00;;;;;22.40;36.88;101912.38;5053464;28;76034;-69
2023/04/16 09:24:47;;;;;;;;;5.25;5.25;;;;;22.41;36.80;101908.78;5056750;27;72971;-69
2023/04/16 09:27:12;;;;;;;;;7.25;6.00;;;;;22.42;36.33;101908.69;5078972;27;66494;-69
2023/04/16 09:29:41;;;;;;;;;9.25;6.00;;;;;22.43;36.46;101909.53;5078962;27;45461;-69
2023/04/16 09:32:08;;;;;;;;;5.00;4.50;;;;;22.45;36.92;101913.84;5079920;28;70352;-69
2023/04/16 09:34:34;;;;;;;;;7.00;4.00;;;;;22.47;36.36;101911.94;5075743;28;46507;-69
2023/04/16 09:37:16;;;;;;;;;6.50;4.25;;;;;22.46;36.74;101914.72;5057122;28;45450;-69
2023/04/16 09:39:42;;;;;;;;;7.00;5.00;;;;;22.50;36.96;101922.41;5089622;27;45529;-69
2023/04/16 09:42:08;;;;;;;;;7.00;6.00;;;;;22.49;36.73;101914.53;5079428;27;46528;-69
2023/04/16 09:44:37;;;;;;;;;4.25;4.25;;;;;22.49;36.69;101911.88;5048900;28;45884;-69
2023/04/16 09:47:07;;;;;;;;;5.00;4.75;;;;;22.52;36.57;101925.88;5062495;28;45424;-69
2023/04/16 09:49:34;;;;;;;;;6.00;6.00;;;;;22.51;36.46;101921.50;5075905;27;45380;-69
2023/04/16 09:52:01;;;;;;;;;8.25;6.25;;;;;22.53;36.79;101930.25;5068830;27;45989;-68
2023/04/16 09:54:26;;;;;;;;;6.75;5.25;;;;;22.52;36.84;101923.22;5078919;27;45440;-69
2023/04/16 09:56:55;;;;;;;;;7.75;6.00;;;;;22.54;36.66;101928.44;5077462;28;45400;-69
2023/04/16 09:59:22;;;;;;;;;5.00;4.50;;;;;22.55;36.43;101928.34;5077150;27;45481;-69
2023/04/16 10:01:48;;;;;;;;;5.00;5.00;;;;;22.52;36.75;101925.00;5076757;27;45551;-69
2023/04/16 10:04:13;;;;;;;;;6.25;5.00;;;;;22.54;36.73;101923.09;5074985;28;45485;-69
2023/04/16 10:06:39;;;;;;;;;7.00;6.25;;;;;22.53;36.75;101930.25;5079185;27;45295;-69
2023/04/16 10:09:07;;;;;;;;;6.25;5.25;;;;;22.56;36.68;101927.41;5076402;27;45425;-69
2023/04/16 10:11:32;;;;;;;;;4.25;4.25;;;;;22.55;36.57;101927.50;5075791;27;46365;-69
2023/04/16 10:13:58;;;;;;;;;6.25;5.00;;;;;22.54;37.00;101915.97;5066297;27;45446;-69
2023/04/16 10:16:23;;;;;;;;;8.00;6.00;;;;;22.56;36.55;101926.56;5078767;27;69289;-69
2023/04/16 10:18:49;;;;;;;;;7.50;7.00;;;;;22.53;36.70;101914.25;5073550;27;45847;-69
2023/04/16 10:21:15;;;;;;;;;7.00;6.00;;;;;22.54;36.67;101913.31;5060270;28;46775;-69
2023/04/16 10:23:41;;;;;;;;;6.25;4.75;;;;;22.55;36.47;101920.34;5058035;28;45266;-70
2023/04/16 10:26:07;;;;;;;;;4.75;4.00;;;;;22.53;36.43;101921.41;5077718;27;45463;-69
2023/04/16 10:28:34;;;;;;;;;6.50;5.50;;;;;22.55;36.57;101919.50;5078331;27;45432;-69
2023/04/16 10:31:04;;;;;;;;;4.25;4.25;;;;;22.55;36.45;101928.34;5066929;28;45459;-69
2023/04/16 10:33:40;;;;;;;;;4.25;4.25;;;;;22.55;36.42;101928.34;5077779;27;45466;-69
2023/04/16 10:36:21;;;;;;;;;5.00;4.25;;;;;22.54;36.83;101929.31;5076999;28;45173;-69
2023/04/16 10:38:49;;;;;;;;;5.75;5.00;;;;;22.58;36.69;101931.81;5061690;27;45456;-69
2023/04/16 10:41:15;;;;;;;;;6.50;4.25;;;;;22.56;36.70;101924.75;5059067;28;47998;-69
2023/04/16 10:43:45;;;;;;;;;5.00;4.00;;;;;22.58;36.79;101921.16;5068738;28;45227;-69
2023/04/16 10:46:38;;;;;;;;;5.00;4.50;;;;;22.59;36.87;101926.38;5075791;28;45421;-68
2023/04/16 10:49:23;;;;;;;;;7.00;4.75;;;;;22.60;36.91;101925.44;5072399;27;45555;-69
2023/04/16 10:51:56;;;;;;;;;5.25;4.50;;;;;22.62;36.20;101925.34;5060190;28;48113;-69
2023/04/16 10:54:27;;;;;;;;;4.75;4.25;;;;;22.61;36.76;101932.50;5063147;28;45503;-68
2023/04/16 10:56:54;;;;;;;;;5.00;4.00;;;;;22.62;36.42;101923.53;5070579;28;45492;-68
2023/04/16 10:59:21;;;;;;;;;7.75;4.00;;;;;22.62;37.00;101931.53;5077450;27;45345;-68
2023/04/16 11:01:49;;;;;;;;;4.50;4.00;;;;;22.63;36.76;101919.03;5075787;28;46692;-68
2023/04/16 11:04:18;;;;;;;;;5.25;4.25;;;;;22.65;36.72;101922.50;5048683;28;45406;-68
2023/04/16 11:07:07;;;;;;;;;3.25;3.25;;;;;22.65;36.74;101925.16;5078171;28;45392;-68
2023/04/16 11:10:07;;;;;;;;;4.00;4.00;;;;;22.66;36.65;101926.88;5075945;27;45417;-68
2023/04/16 11:12:36;;;;;;;;;5.50;5.50;;;;;22.66;36.41;101924.19;5082407;27;47203;-68
2023/04/16 11:15:07;;;;;;;;;5.75;4.50;;;;;22.66;37.02;101922.38;5073838;27;45386;-68
2023/04/16 11:17:37;;;;;;;;;4.00;3.25;;;;;22.66;36.83;101911.72;5072998;27;45397;-68
2023/04/16 11:20:04;;;;;;;;;4.00;4.00;;;;;22.64;36.43;101912.75;5077487;27;45410;-68